sensor_id;sensor_type;location;lat;lon;timestamp;P1;durP1;ratioP1;P2;durP2;ratioP2
75340;SDS011;64931;47.562;18.920;2023-04-25T00:00:15;4.40;;;2.50;;
75340;SDS011;64931;47.562;18.920;2023-04-25T00:02:41;3.80;;;2.10;;
75340;SDS011;64931;47.562;18.920;2023-04-25T00:05:07;4.30;;;2.60;;
75340;SDS011;64931;47.562;18.920;2023-04-25T00:07:33;4.90;;;2.70;;
75340;SDS011;64931;47.562;18.920;2023-04-25T00:09:59;5.10;;;2.60;;
75340;SDS011;64931;47.562;18.920;2023-04-25T00:12:25;4.40;;;2.60;;
75340;SDS011;64931;47.562;18.920;2023-04-25T00:14:53;4.40;;;2.70;;
75340;SDS011;64931;47.562;18.920;2023-04-25T00:17:18;5.20;;;3.30;;
75340;SDS011;64931;47.562;18.920;2023-04-25T00:19:44;5.30;;;3.40;;
75340;SDS011;64931;47.562;18.920;2023-04-25T00:22:11;6.30;;;3.20;;
75340;SDS011;64931;47.562;18.920;2023-04-25T00:24:38;5.60;;;3.30;;
75340;SDS011;64931;47.562;18.920;2023-04-25T00:27:03;5.10;;;3.10;;
75340;SDS011;64931;47.562;18.920;2023-04-25T00:29:28;4.90;;;3.30;;
75340;SDS011;64931;47.562;18.920;2023-04-25T00:31:54;6.10;;;3.10;;
75340;SDS011;64931;47.562;18.920;2023-04-25T00:34:19;4.70;;;3.40;;
75340;SDS011;64931;47.562;18.920;2023-04-25T00:36:45;5.10;;;3.50;;
75340;SDS011;64931;47.562;18.920;2023-04-25T00:39:11;5.10;;;3.20;;
75340;SDS011;64931;47.562;18.920;2023-04-25T00:41:36;5.30;;;3.50;;
75340;SDS011;64931;47.562;18.920;2023-04-25T00:44:02;5.00;;;3.30;;
75340;SDS011;64931;47.562;18.920;2023-04-25T00:46:29;6.10;;;3.10;;
75340;SDS011;64931;47.562;18.920;2023-04-25T00:48:56;5.40;;;3.50;;
75340;SDS011;64931;47.562;18.920;2023-04-25T00:51:21;5.30;;;3.40;;
75340;SDS011;64931;47.562;18.920;2023-04-25T00:53:50;5.40;;;3.70;;
75340;SDS011;64931;47.562;18.920;2023-04-25T00:56:16;6.00;;;3.60;;
75340;SDS011;64931;47.562;18.920;2023-04-25T00:58:41;5.70;;;4.20;;
75340;SDS011;64931;47.562;18.920;2023-04-25T01:01:08;6.10;;;4.50;;
75340;SDS011;64931;47.562;18.920;2023-04-25T01:03:34;6.40;;;4.50;;
75340;SDS011;64931;47.562;18.920;2023-04-25T01:06:05;6.10;;;4.30;;
75340;SDS011;64931;47.562;18.920;2023-04-25T01:08:36;6.50;;;4.20;;
75340;SDS011;64931;47.562;18.920;2023-04-25T01:11:05;6.60;;;4.20;;
75340;SDS011;64931;47.562;18.920;2023-04-25T01:13:31;7.40;;;4.70;;
75340;SDS011;64931;47.562;18.920;2023-04-25T01:15:57;5.40;;;4.00;;
75340;SDS011;64931;47.562;18.920;2023-04-25T01:18:24;7.30;;;4.90;;
75340;SDS011;64931;47.562;18.920;2023-04-25T01:20:50;6.00;;;4.00;;
75340;SDS011;64931;47.562;18.920;2023-04-25T01:23:16;6.30;;;4.40;;
75340;SDS011;64931;47.562;18.920;2023-04-25T01:25:43;5.30;;;4.00;;
75340;SDS011;64931;47.562;18.920;2023-04-25T01:28:08;6.30;;;4.50;;
75340;SDS011;64931;47.562;18.920;2023-04-25T01:30:33;6.40;;;4.60;;
75340;SDS011;64931;47.562;18.920;2023-04-25T01:33:00;5.60;;;4.10;;
75340;SDS011;64931;47.562;18.920;2023-04-25T01:35:25;6.70;;;4.20;;
75340;SDS011;64931;47.562;18.920;2023-04-25T01:37:51;6.10;;;4.10;;
75340;SDS011;64931;47.562;18.920;2023-04-25T01:40:17;5.40;;;3.80;;
75340;SDS011;64931;47.562;18.920;2023-04-25T01:42:44;6.00;;;3.60;;
75340;SDS011;64931;47.562;18.920;2023-04-25T01:45:10;5.80;;;4.00;;
75340;SDS011;64931;47.562;18.920;2023-04-25T01:47:36;6.50;;;3.80;;
75340;SDS011;64931;47.562;18.920;2023-04-25T01:50:03;7.80;;;4.40;;
75340;SDS011;64931;47.562;18.920;2023-04-25T01:52:29;7.50;;;4.00;;
75340;SDS011;64931;47.562;18.920;2023-04-25T01:54:55;6.00;;;4.20;;
75340;SDS011;64931;47.562;18.920;2023-04-25T01:57:22;6.10;;;3.90;;
75340;SDS011;64931;47.562;18.920;2023-04-25T01:59:47;6.90;;;3.90;;
75340;SDS011;64931;47.562;18.920;2023-04-25T02:02:13;5.70;;;3.90;;
75340;SDS011;64931;47.562;18.920;2023-04-25T02:04:38;7.70;;;4.30;;
75340;SDS011;64931;47.562;18.920;2023-04-25T02:07:03;5.70;;;4.20;;
75340;SDS011;64931;47.562;18.920;2023-04-25T02:09:29;5.30;;;3.60;;
75340;SDS011;64931;47.562;18.920;2023-04-25T02:11:54;5.30;;;3.30;;
75340;SDS011;64931;47.562;18.920;2023-04-25T02:14:20;7.30;;;4.40;;
75340;SDS011;64931;47.562;18.920;2023-04-25T02:16:45;5.80;;;4.10;;
75340;SDS011;64931;47.562;18.920;2023-04-25T02:19:11;6.10;;;4.20;;
75340;SDS011;64931;47.562;18.920;2023-04-25T02:21:36;5.30;;;3.50;;
75340;SDS011;64931;47.562;18.920;2023-04-25T02:24:02;6.20;;;4.00;;
75340;SDS011;64931;47.562;18.920;2023-04-25T02:26:28;5.90;;;3.80;;
75340;SDS011;64931;47.562;18.920;2023-04-25T02:28:55;5.40;;;4.30;;
75340;SDS011;64931;47.562;18.920;2023-04-25T02:31:21;6.10;;;4.70;;
75340;SDS011;64931;47.562;18.920;2023-04-25T02:33:47;5.50;;;3.90;;
75340;SDS011;64931;47.562;18.920;2023-04-25T02:36:13;6.60;;;3.80;;
75340;SDS011;64931;47.562;18.920;2023-04-25T02:38:38;7.50;;;3.50;;
75340;SDS011;64931;47.562;18.920;2023-04-25T02:41:03;6.60;;;4.00;;
75340;SDS011;64931;47.562;18.920;2023-04-25T02:43:29;6.20;;;4.20;;
75340;SDS011;64931;47.562;18.920;2023-04-25T02:45:54;6.80;;;4.00;;
75340;SDS011;64931;47.562;18.920;2023-04-25T02:48:20;5.80;;;3.90;;
75340;SDS011;64931;47.562;18.920;2023-04-25T02:50:45;5.90;;;3.90;;
75340;SDS011;64931;47.562;18.920;2023-04-25T02:53:11;6.70;;;4.50;;
75340;SDS011;64931;47.562;18.920;2023-04-25T02:55:36;6.00;;;3.90;;
75340;SDS011;64931;47.562;18.920;2023-04-25T02:58:01;6.10;;;3.80;;
75340;SDS011;64931;47.562;18.920;2023-04-25T03:00:27;6.20;;;4.40;;
75340;SDS011;64931;47.562;18.920;2023-04-25T03:02:53;7.40;;;4.00;;
75340;SDS011;64931;47.562;18.920;2023-04-25T03:05:18;6.10;;;4.30;;
75340;SDS011;64931;47.562;18.920;2023-04-25T03:07:44;5.50;;;3.50;;
75340;SDS011;64931;47.562;18.920;2023-04-25T03:10:11;5.50;;;3.90;;
75340;SDS011;64931;47.562;18.920;2023-04-25T03:12:37;7.70;;;3.80;;
75340;SDS011;64931;47.562;18.920;2023-04-25T03:15:02;7.90;;;4.30;;
75340;SDS011;64931;47.562;18.920;2023-04-25T03:17:28;6.50;;;3.90;;
75340;SDS011;64931;47.562;18.920;2023-04-25T03:19:54;6.20;;;4.00;;
75340;SDS011;64931;47.562;18.920;2023-04-25T03:22:20;5.60;;;4.00;;
75340;SDS011;64931;47.562;18.920;2023-04-25T03:24:45;6.20;;;4.20;;
75340;SDS011;64931;47.562;18.920;2023-04-25T03:27:11;7.10;;;4.40;;
75340;SDS011;64931;47.562;18.920;2023-04-25T03:29:36;6.20;;;4.60;;
75340;SDS011;64931;47.562;18.920;2023-04-25T03:32:01;5.90;;;3.90;;
75340;SDS011;64931;47.562;18.920;2023-04-25T03:34:27;7.10;;;4.70;;
75340;SDS011;64931;47.562;18.920;2023-04-25T03:36:53;7.20;;;4.40;;
75340;SDS011;64931;47.562;18.920;2023-04-25T03:39:18;7.20;;;4.30;;
75340;SDS011;64931;47.562;18.920;2023-04-25T03:41:43;11.80;;;4.40;;
75340;SDS011;64931;47.562;18.920;2023-04-25T03:44:09;6.80;;;5.00;;
75340;SDS011;64931;47.562;18.920;2023-04-25T03:46:34;8.60;;;5.30;;
75340;SDS011;64931;47.562;18.920;2023-04-25T03:49:00;6.50;;;4.90;;
75340;SDS011;64931;47.562;18.920;2023-04-25T03:51:25;7.30;;;5.20;;
75340;SDS011;64931;47.562;18.920;2023-04-25T03:53:51;6.90;;;4.30;;
75340;SDS011;64931;47.562;18.920;2023-04-25T03:56:17;6.80;;;4.70;;
75340;SDS011;64931;47.562;18.920;2023-04-25T03:58:42;7.20;;;4.30;;
75340;SDS011;64931;47.562;18.920;2023-04-25T04:01:08;8.00;;;4.80;;
75340;SDS011;64931;47.562;18.920;2023-04-25T04:03:34;8.80;;;4.90;;
75340;SDS011;64931;47.562;18.920;2023-04-25T04:06:05;8.40;;;5.30;;
75340;SDS011;64931;47.562;18.920;2023-04-25T04:08:32;7.00;;;5.10;;
75340;SDS011;64931;47.562;18.920;2023-04-25T04:10:58;6.40;;;5.30;;
75340;SDS011;64931;47.562;18.920;2023-04-25T04:13:25;8.20;;;5.70;;
75340;SDS011;64931;47.562;18.920;2023-04-25T04:15:51;6.40;;;4.80;;
75340;SDS011;64931;47.562;18.920;2023-04-25T04:18:17;8.10;;;4.90;;
75340;SDS011;64931;47.562;18.920;2023-04-25T04:20:42;6.50;;;4.90;;
75340;SDS011;64931;47.562;18.920;2023-04-25T04:23:07;6.90;;;4.80;;
75340;SDS011;64931;47.562;18.920;2023-04-25T04:25:33;6.60;;;5.30;;
75340;SDS011;64931;47.562;18.920;2023-04-25T04:27:59;7.10;;;4.40;;
75340;SDS011;64931;47.562;18.920;2023-04-25T04:30:26;8.90;;;5.70;;
75340;SDS011;64931;47.562;18.920;2023-04-25T04:32:54;8.30;;;5.20;;
75340;SDS011;64931;47.562;18.920;2023-04-25T04:35:20;7.60;;;5.40;;
75340;SDS011;64931;47.562;18.920;2023-04-25T04:37:46;6.90;;;5.80;;
75340;SDS011;64931;47.562;18.920;2023-04-25T04:40:13;8.10;;;5.30;;
75340;SDS011;64931;47.562;18.920;2023-04-25T04:42:43;7.00;;;5.20;;
75340;SDS011;64931;47.562;18.920;2023-04-25T04:45:10;7.80;;;6.40;;
75340;SDS011;64931;47.562;18.920;2023-04-25T04:47:36;8.20;;;6.00;;
75340;SDS011;64931;47.562;18.920;2023-04-25T04:50:09;8.60;;;6.10;;
75340;SDS011;64931;47.562;18.920;2023-04-25T04:52:35;9.20;;;6.70;;
75340;SDS011;64931;47.562;18.920;2023-04-25T04:55:01;7.60;;;6.40;;
75340;SDS011;64931;47.562;18.920;2023-04-25T04:57:28;8.50;;;6.00;;
75340;SDS011;64931;47.562;18.920;2023-04-25T04:59:53;7.60;;;5.60;;
75340;SDS011;64931;47.562;18.920;2023-04-25T05:02:19;12.50;;;8.80;;
75340;SDS011;64931;47.562;18.920;2023-04-25T05:04:45;7.80;;;6.70;;
75340;SDS011;64931;47.562;18.920;2023-04-25T05:07:10;8.20;;;5.30;;
75340;SDS011;64931;47.562;18.920;2023-04-25T05:09:36;7.50;;;5.60;;
75340;SDS011;64931;47.562;18.920;2023-04-25T05:12:01;9.00;;;6.20;;
75340;SDS011;64931;47.562;18.920;2023-04-25T05:14:27;9.20;;;6.50;;
75340;SDS011;64931;47.562;18.920;2023-04-25T05:16:52;8.80;;;5.90;;
75340;SDS011;64931;47.562;18.920;2023-04-25T05:19:18;8.50;;;6.40;;
75340;SDS011;64931;47.562;18.920;2023-04-25T05:21:43;7.30;;;6.10;;
75340;SDS011;64931;47.562;18.920;2023-04-25T05:24:08;9.10;;;5.90;;
75340;SDS011;64931;47.562;18.920;2023-04-25T05:26:34;9.00;;;5.90;;
75340;SDS011;64931;47.562;18.920;2023-04-25T05:28:59;9.20;;;6.70;;
75340;SDS011;64931;47.562;18.920;2023-04-25T05:31:25;8.90;;;6.90;;
75340;SDS011;64931;47.562;18.920;2023-04-25T05:33:51;7.90;;;5.50;;
75340;SDS011;64931;47.562;18.920;2023-04-25T05:36:17;10.40;;;6.60;;
75340;SDS011;64931;47.562;18.920;2023-04-25T05:38:43;9.50;;;6.90;;
75340;SDS011;64931;47.562;18.920;2023-04-25T05:41:09;11.50;;;8.20;;
75340;SDS011;64931;47.562;18.920;2023-04-25T05:43:34;9.60;;;6.80;;
75340;SDS011;64931;47.562;18.920;2023-04-25T05:46:00;10.10;;;6.80;;
75340;SDS011;64931;47.562;18.920;2023-04-25T05:48:25;8.10;;;6.20;;
75340;SDS011;64931;47.562;18.920;2023-04-25T05:50:51;10.60;;;7.30;;
75340;SDS011;64931;47.562;18.920;2023-04-25T05:53:17;9.40;;;7.90;;
75340;SDS011;64931;47.562;18.920;2023-04-25T05:55:43;9.00;;;6.60;;
75340;SDS011;64931;47.562;18.920;2023-04-25T05:58:08;8.90;;;6.50;;
75340;SDS011;64931;47.562;18.920;2023-04-25T06:00:34;10.70;;;7.20;;
75340;SDS011;64931;47.562;18.920;2023-04-25T06:03:00;12.80;;;10.00;;
75340;SDS011;64931;47.562;18.920;2023-04-25T06:05:26;12.00;;;8.60;;
75340;SDS011;64931;47.562;18.920;2023-04-25T06:07:51;9.90;;;7.40;;
75340;SDS011;64931;47.562;18.920;2023-04-25T06:10:16;10.20;;;7.60;;
75340;SDS011;64931;47.562;18.920;2023-04-25T06:12:42;9.10;;;7.70;;
75340;SDS011;64931;47.562;18.920;2023-04-25T06:15:07;10.10;;;6.90;;
75340;SDS011;64931;47.562;18.920;2023-04-25T06:17:33;10.00;;;8.10;;
75340;SDS011;64931;47.562;18.920;2023-04-25T06:19:58;10.40;;;8.20;;
75340;SDS011;64931;47.562;18.920;2023-04-25T06:22:24;9.30;;;7.90;;
75340;SDS011;64931;47.562;18.920;2023-04-25T06:24:49;11.00;;;8.90;;
75340;SDS011;64931;47.562;18.920;2023-04-25T06:27:15;11.50;;;8.30;;
75340;SDS011;64931;47.562;18.920;2023-04-25T06:29:40;10.30;;;8.30;;
75340;SDS011;64931;47.562;18.920;2023-04-25T06:32:06;10.40;;;8.80;;
75340;SDS011;64931;47.562;18.920;2023-04-25T06:34:31;10.50;;;8.40;;
75340;SDS011;64931;47.562;18.920;2023-04-25T06:36:56;10.20;;;8.80;;
75340;SDS011;64931;47.562;18.920;2023-04-25T06:39:22;11.30;;;8.30;;
75340;SDS011;64931;47.562;18.920;2023-04-25T06:44:16;10.70;;;9.10;;
75340;SDS011;64931;47.562;18.920;2023-04-25T06:46:41;9.80;;;7.70;;
75340;SDS011;64931;47.562;18.920;2023-04-25T06:49:07;10.80;;;8.50;;
75340;SDS011;64931;47.562;18.920;2023-04-25T06:51:32;10.60;;;8.40;;
75340;SDS011;64931;47.562;18.920;2023-04-25T06:53:58;9.90;;;7.20;;
75340;SDS011;64931;47.562;18.920;2023-04-25T06:56:23;10.10;;;8.50;;
75340;SDS011;64931;47.562;18.920;2023-04-25T06:58:49;9.80;;;7.50;;
75340;SDS011;64931;47.562;18.920;2023-04-25T07:01:14;9.40;;;8.40;;
75340;SDS011;64931;47.562;18.920;2023-04-25T07:03:40;10.70;;;8.00;;
75340;SDS011;64931;47.562;18.920;2023-04-25T07:06:06;9.90;;;8.00;;
75340;SDS011;64931;47.562;18.920;2023-04-25T07:08:31;10.60;;;7.10;;
75340;SDS011;64931;47.562;18.920;2023-04-25T07:10:56;8.40;;;6.80;;
75340;SDS011;64931;47.562;18.920;2023-04-25T07:13:22;9.90;;;7.20;;
75340;SDS011;64931;47.562;18.920;2023-04-25T07:15:47;9.20;;;7.70;;
75340;SDS011;64931;47.562;18.920;2023-04-25T07:18:13;8.80;;;6.30;;
75340;SDS011;64931;47.562;18.920;2023-04-25T07:20:39;8.50;;;7.40;;
75340;SDS011;64931;47.562;18.920;2023-04-25T07:23:04;8.30;;;7.40;;
75340;SDS011;64931;47.562;18.920;2023-04-25T07:25:30;9.70;;;7.70;;
75340;SDS011;64931;47.562;18.920;2023-04-25T07:27:55;9.40;;;7.20;;
75340;SDS011;64931;47.562;18.920;2023-04-25T07:30:21;10.80;;;7.20;;
75340;SDS011;64931;47.562;18.920;2023-04-25T07:32:48;8.00;;;6.30;;
75340;SDS011;64931;47.562;18.920;2023-04-25T07:35:14;9.00;;;6.80;;
75340;SDS011;64931;47.562;18.920;2023-04-25T07:37:40;8.70;;;7.20;;
75340;SDS011;64931;47.562;18.920;2023-04-25T07:40:05;11.00;;;7.30;;
75340;SDS011;64931;47.562;18.920;2023-04-25T07:42:32;7.50;;;5.50;;
75340;SDS011;64931;47.562;18.920;2023-04-25T07:44:58;7.80;;;6.40;;
75340;SDS011;64931;47.562;18.920;2023-04-25T07:47:23;9.30;;;7.50;;
75340;SDS011;64931;47.562;18.920;2023-04-25T07:49:49;8.30;;;6.10;;
75340;SDS011;64931;47.562;18.920;2023-04-25T07:52:14;8.50;;;6.70;;
75340;SDS011;64931;47.562;18.920;2023-04-25T07:54:42;8.10;;;6.00;;
75340;SDS011;64931;47.562;18.920;2023-04-25T07:57:10;7.40;;;5.70;;
75340;SDS011;64931;47.562;18.920;2023-04-25T07:59:35;7.80;;;5.70;;
75340;SDS011;64931;47.562;18.920;2023-04-25T08:02:01;6.50;;;5.70;;
75340;SDS011;64931;47.562;18.920;2023-04-25T08:04:27;7.40;;;5.70;;
75340;SDS011;64931;47.562;18.920;2023-04-25T08:06:53;7.40;;;5.20;;
75340;SDS011;64931;47.562;18.920;2023-04-25T08:09:22;7.50;;;5.30;;
75340;SDS011;64931;47.562;18.920;2023-04-25T08:11:48;7.90;;;6.10;;
75340;SDS011;64931;47.562;18.920;2023-04-25T08:14:13;6.90;;;4.90;;
75340;SDS011;64931;47.562;18.920;2023-04-25T08:16:39;7.10;;;5.40;;
75340;SDS011;64931;47.562;18.920;2023-04-25T08:19:05;7.00;;;4.60;;
75340;SDS011;64931;47.562;18.920;2023-04-25T08:21:30;6.20;;;4.70;;
75340;SDS011;64931;47.562;18.920;2023-04-25T08:23:56;7.70;;;5.00;;
75340;SDS011;64931;47.562;18.920;2023-04-25T08:26:23;7.00;;;5.10;;
75340;SDS011;64931;47.562;18.920;2023-04-25T08:28:49;8.70;;;6.40;;
75340;SDS011;64931;47.562;18.920;2023-04-25T08:31:15;6.60;;;5.20;;
75340;SDS011;64931;47.562;18.920;2023-04-25T08:33:41;7.70;;;6.10;;
75340;SDS011;64931;47.562;18.920;2023-04-25T08:36:06;9.40;;;6.10;;
75340;SDS011;64931;47.562;18.920;2023-04-25T08:38:32;7.70;;;5.60;;
75340;SDS011;64931;47.562;18.920;2023-04-25T08:40:57;7.50;;;6.40;;
75340;SDS011;64931;47.562;18.920;2023-04-25T08:43:24;8.50;;;5.40;;
75340;SDS011;64931;47.562;18.920;2023-04-25T08:45:50;7.80;;;6.30;;
75340;SDS011;64931;47.562;18.920;2023-04-25T08:50:51;7.70;;;6.00;;
75340;SDS011;64931;47.562;18.920;2023-04-25T08:53:18;7.20;;;5.70;;
75340;SDS011;64931;47.562;18.920;2023-04-25T08:55:47;7.60;;;6.10;;
75340;SDS011;64931;47.562;18.920;2023-04-25T08:58:13;8.80;;;6.10;;
75340;SDS011;64931;47.562;18.920;2023-04-25T09:00:39;7.90;;;5.80;;
75340;SDS011;64931;47.562;18.920;2023-04-25T09:03:05;10.80;;;5.90;;
75340;SDS011;64931;47.562;18.920;2023-04-25T09:05:34;6.80;;;5.10;;
75340;SDS011;64931;47.562;18.920;2023-04-25T09:08:00;8.30;;;6.30;;
75340;SDS011;64931;47.562;18.920;2023-04-25T09:10:26;7.40;;;6.00;;
75340;SDS011;64931;47.562;18.920;2023-04-25T09:15:27;6.90;;;5.40;;
75340;SDS011;64931;47.562;18.920;2023-04-25T09:17:56;7.70;;;5.60;;
75340;SDS011;64931;47.562;18.920;2023-04-25T09:20:22;6.80;;;5.00;;
75340;SDS011;64931;47.562;18.920;2023-04-25T09:22:48;7.70;;;5.20;;
75340;SDS011;64931;47.562;18.920;2023-04-25T09:25:13;6.80;;;4.40;;
75340;SDS011;64931;47.562;18.920;2023-04-25T09:30:17;5.90;;;4.20;;
75340;SDS011;64931;47.562;18.920;2023-04-25T09:32:43;6.30;;;4.50;;
75340;SDS011;64931;47.562;18.920;2023-04-25T09:35:08;5.80;;;4.40;;
75340;SDS011;64931;47.562;18.920;2023-04-25T09:37:34;5.90;;;3.50;;
75340;SDS011;64931;47.562;18.920;2023-04-25T09:40:00;5.20;;;3.80;;
75340;SDS011;64931;47.562;18.920;2023-04-25T09:42:30;6.30;;;3.80;;
75340;SDS011;64931;47.562;18.920;2023-04-25T09:44:57;5.00;;;3.70;;
75340;SDS011;64931;47.562;18.920;2023-04-25T09:47:24;4.80;;;3.60;;
75340;SDS011;64931;47.562;18.920;2023-04-25T09:49:51;5.40;;;3.30;;
75340;SDS011;64931;47.562;18.920;2023-04-25T09:52:17;5.50;;;3.80;;
75340;SDS011;64931;47.562;18.920;2023-04-25T09:54:44;4.80;;;3.50;;
75340;SDS011;64931;47.562;18.920;2023-04-25T09:57:18;6.20;;;3.70;;
75340;SDS011;64931;47.562;18.920;2023-04-25T09:59:48;4.80;;;3.40;;
75340;SDS011;64931;47.562;18.920;2023-04-25T10:02:18;5.00;;;3.10;;
75340;SDS011;64931;47.562;18.920;2023-04-25T10:04:49;6.70;;;3.30;;
75340;SDS011;64931;47.562;18.920;2023-04-25T10:07:20;4.50;;;2.70;;
75340;SDS011;64931;47.562;18.920;2023-04-25T10:09:48;4.30;;;2.50;;
75340;SDS011;64931;47.562;18.920;2023-04-25T10:12:16;4.80;;;2.30;;
75340;SDS011;64931;47.562;18.920;2023-04-25T10:14:42;3.80;;;2.20;;
75340;SDS011;64931;47.562;18.920;2023-04-25T10:17:09;3.70;;;2.20;;
75340;SDS011;64931;47.562;18.920;2023-04-25T10:19:35;4.00;;;2.30;;
75340;SDS011;64931;47.562;18.920;2023-04-25T10:22:05;3.80;;;2.20;;
75340;SDS011;64931;47.562;18.920;2023-04-25T10:24:33;5.40;;;1.80;;
75340;SDS011;64931;47.562;18.920;2023-04-25T10:27:00;3.30;;;1.90;;
75340;SDS011;64931;47.562;18.920;2023-04-25T10:29:26;3.00;;;1.70;;
75340;SDS011;64931;47.562;18.920;2023-04-25T10:31:52;3.50;;;1.80;;
75340;SDS011;64931;47.562;18.920;2023-04-25T10:34:18;3.10;;;1.60;;
75340;SDS011;64931;47.562;18.920;2023-04-25T10:36:49;2.90;;;1.50;;
75340;SDS011;64931;47.562;18.920;2023-04-25T10:39:21;3.80;;;1.40;;
75340;SDS011;64931;47.562;18.920;2023-04-25T10:41:51;2.60;;;1.20;;
75340;SDS011;64931;47.562;18.920;2023-04-25T10:44:18;2.40;;;1.20;;
75340;SDS011;64931;47.562;18.920;2023-04-25T10:46:44;1.60;;;0.90;;
75340;SDS011;64931;47.562;18.920;2023-04-25T10:49:10;1.70;;;1.00;;
75340;SDS011;64931;47.562;18.920;2023-04-25T10:51:36;1.70;;;0.90;;
75340;SDS011;64931;47.562;18.920;2023-04-25T10:54:02;2.10;;;0.90;;
75340;SDS011;64931;47.562;18.920;2023-04-25T10:56:30;1.30;;;0.90;;
75340;SDS011;64931;47.562;18.920;2023-04-25T10:59:05;1.70;;;1.00;;
75340;SDS011;64931;47.562;18.920;2023-04-25T11:01:39;2.30;;;1.10;;
75340;SDS011;64931;47.562;18.920;2023-04-25T11:04:51;1.30;;;0.80;;
75340;SDS011;64931;47.562;18.920;2023-04-25T11:09:42;1.40;;;0.80;;
75340;SDS011;64931;47.562;18.920;2023-04-25T11:12:10;2.20;;;0.80;;
75340;SDS011;64931;47.562;18.920;2023-04-25T11:14:37;2.80;;;0.90;;
75340;SDS011;64931;47.562;18.920;2023-04-25T11:17:03;1.40;;;0.80;;
75340;SDS011;64931;47.562;18.920;2023-04-25T11:19:28;3.00;;;0.90;;
75340;SDS011;64931;47.562;18.920;2023-04-25T11:21:55;1.80;;;0.80;;
75340;SDS011;64931;47.562;18.920;2023-04-25T11:24:31;1.90;;;1.10;;
75340;SDS011;64931;47.562;18.920;2023-04-25T11:27:00;1.60;;;0.90;;
75340;SDS011;64931;47.562;18.920;2023-04-25T11:29:29;1.40;;;0.90;;
75340;SDS011;64931;47.562;18.920;2023-04-25T11:31:55;2.70;;;1.00;;
75340;SDS011;64931;47.562;18.920;2023-04-25T11:34:25;1.50;;;1.10;;
75340;SDS011;64931;47.562;18.920;2023-04-25T11:36:51;1.30;;;0.80;;
75340;SDS011;64931;47.562;18.920;2023-04-25T11:39:18;1.80;;;1.00;;
75340;SDS011;64931;47.562;18.920;2023-04-25T11:41:46;2.50;;;1.00;;
75340;SDS011;64931;47.562;18.920;2023-04-25T11:44:15;3.80;;;1.10;;
75340;SDS011;64931;47.562;18.920;2023-04-25T11:46:40;2.30;;;1.20;;
75340;SDS011;64931;47.562;18.920;2023-04-25T11:49:09;2.60;;;1.10;;
75340;SDS011;64931;47.562;18.920;2023-04-25T11:51:41;2.00;;;1.00;;
75340;SDS011;64931;47.562;18.920;2023-04-25T11:54:08;2.40;;;1.00;;
75340;SDS011;64931;47.562;18.920;2023-04-25T11:56:34;1.60;;;1.00;;
75340;SDS011;64931;47.562;18.920;2023-04-25T11:59:03;3.00;;;1.00;;
75340;SDS011;64931;47.562;18.920;2023-04-25T12:01:30;2.90;;;1.40;;
75340;SDS011;64931;47.562;18.920;2023-04-25T12:03:56;6.50;;;1.50;;
75340;SDS011;64931;47.562;18.920;2023-04-25T12:06:31;3.00;;;1.60;;
75340;SDS011;64931;47.562;18.920;2023-04-25T12:09:03;2.60;;;1.50;;
75340;SDS011;64931;47.562;18.920;2023-04-25T12:11:32;2.50;;;1.30;;
75340;SDS011;64931;47.562;18.920;2023-04-25T12:14:03;3.30;;;1.70;;
75340;SDS011;64931;47.562;18.920;2023-04-25T12:16:44;2.60;;;1.60;;
75340;SDS011;64931;47.562;18.920;2023-04-25T12:19:13;3.00;;;1.60;;
75340;SDS011;64931;47.562;18.920;2023-04-25T12:21:39;3.30;;;1.70;;
75340;SDS011;64931;47.562;18.920;2023-04-25T12:24:18;2.10;;;1.20;;
75340;SDS011;64931;47.562;18.920;2023-04-25T12:27:06;2.40;;;1.20;;
75340;SDS011;64931;47.562;18.920;2023-04-25T12:29:33;4.40;;;1.50;;
75340;SDS011;64931;47.562;18.920;2023-04-25T12:31:59;3.60;;;1.40;;
75340;SDS011;64931;47.562;18.920;2023-04-25T12:34:27;2.60;;;1.50;;
75340;SDS011;64931;47.562;18.920;2023-04-25T12:36:52;2.20;;;1.40;;
75340;SDS011;64931;47.562;18.920;2023-04-25T12:39:18;4.00;;;1.80;;
75340;SDS011;64931;47.562;18.920;2023-04-25T12:41:46;2.40;;;1.40;;
75340;SDS011;64931;47.562;18.920;2023-04-25T12:44:12;3.10;;;1.60;;
75340;SDS011;64931;47.562;18.920;2023-04-25T12:46:38;3.60;;;1.60;;
75340;SDS011;64931;47.562;18.920;2023-04-25T12:49:04;2.30;;;1.50;;
75340;SDS011;64931;47.562;18.920;2023-04-25T12:51:31;4.80;;;1.70;;
75340;SDS011;64931;47.562;18.920;2023-04-25T12:53:58;2.20;;;1.40;;
75340;SDS011;64931;47.562;18.920;2023-04-25T12:56:26;2.90;;;1.30;;
75340;SDS011;64931;47.562;18.920;2023-04-25T12:58:52;3.00;;;1.40;;
75340;SDS011;64931;47.562;18.920;2023-04-25T13:01:18;3.80;;;1.60;;
75340;SDS011;64931;47.562;18.920;2023-04-25T13:03:44;2.90;;;1.70;;
75340;SDS011;64931;47.562;18.920;2023-04-25T13:06:09;3.80;;;1.50;;
75340;SDS011;64931;47.562;18.920;2023-04-25T13:08:35;3.10;;;1.70;;
75340;SDS011;64931;47.562;18.920;2023-04-25T13:11:02;2.80;;;1.40;;
75340;SDS011;64931;47.562;18.920;2023-04-25T13:13:28;3.50;;;1.50;;
75340;SDS011;64931;47.562;18.920;2023-04-25T13:15:57;2.90;;;1.60;;
75340;SDS011;64931;47.562;18.920;2023-04-25T13:18:23;3.70;;;1.70;;
75340;SDS011;64931;47.562;18.920;2023-04-25T13:20:54;3.10;;;1.50;;
75340;SDS011;64931;47.562;18.920;2023-04-25T13:23:20;3.80;;;1.90;;
75340;SDS011;64931;47.562;18.920;2023-04-25T13:25:48;3.10;;;1.60;;
75340;SDS011;64931;47.562;18.920;2023-04-25T13:30:42;3.80;;;1.60;;
75340;SDS011;64931;47.562;18.920;2023-04-25T13:33:20;7.50;;;1.80;;
75340;SDS011;64931;47.562;18.920;2023-04-25T13:35:46;4.00;;;2.10;;
75340;SDS011;64931;47.562;18.920;2023-04-25T13:38:19;3.70;;;1.80;;
75340;SDS011;64931;47.562;18.920;2023-04-25T13:40:47;3.50;;;1.80;;
75340;SDS011;64931;47.562;18.920;2023-04-25T13:43:13;3.40;;;1.90;;
75340;SDS011;64931;47.562;18.920;2023-04-25T13:45:39;3.90;;;1.90;;
75340;SDS011;64931;47.562;18.920;2023-04-25T13:48:04;3.70;;;1.80;;
75340;SDS011;64931;47.562;18.920;2023-04-25T13:50:32;3.00;;;1.80;;
75340;SDS011;64931;47.562;18.920;2023-04-25T13:52:58;3.30;;;1.80;;
75340;SDS011;64931;47.562;18.920;2023-04-25T13:55:23;3.30;;;1.60;;
75340;SDS011;64931;47.562;18.920;2023-04-25T13:57:48;3.30;;;1.50;;
75340;SDS011;64931;47.562;18.920;2023-04-25T14:00:14;3.00;;;1.40;;
75340;SDS011;64931;47.562;18.920;2023-04-25T14:02:40;4.00;;;1.70;;
75340;SDS011;64931;47.562;18.920;2023-04-25T14:05:05;3.20;;;1.40;;
75340;SDS011;64931;47.562;18.920;2023-04-25T14:07:32;2.60;;;1.40;;
75340;SDS011;64931;47.562;18.920;2023-04-25T14:12:25;2.80;;;1.30;;
75340;SDS011;64931;47.562;18.920;2023-04-25T14:14:56;4.20;;;1.50;;
75340;SDS011;64931;47.562;18.920;2023-04-25T14:17:25;3.00;;;1.30;;
75340;SDS011;64931;47.562;18.920;2023-04-25T14:19:50;3.10;;;1.60;;
75340;SDS011;64931;47.562;18.920;2023-04-25T14:22:16;5.00;;;1.50;;
75340;SDS011;64931;47.562;18.920;2023-04-25T14:24:41;5.50;;;2.00;;
75340;SDS011;64931;47.562;18.920;2023-04-25T14:27:07;5.40;;;1.60;;
75340;SDS011;64931;47.562;18.920;2023-04-25T14:29:32;3.40;;;1.30;;
75340;SDS011;64931;47.562;18.920;2023-04-25T14:31:58;3.90;;;1.80;;
75340;SDS011;64931;47.562;18.920;2023-04-25T14:34:24;3.30;;;1.50;;
75340;SDS011;64931;47.562;18.920;2023-04-25T14:36:50;3.70;;;1.60;;
75340;SDS011;64931;47.562;18.920;2023-04-25T14:39:16;3.40;;;1.40;;
75340;SDS011;64931;47.562;18.920;2023-04-25T14:41:42;2.80;;;1.50;;
75340;SDS011;64931;47.562;18.920;2023-04-25T14:44:07;3.30;;;1.60;;
75340;SDS011;64931;47.562;18.920;2023-04-25T14:46:33;3.80;;;1.60;;